Time;durP1;ratioP1;P1;durP2;ratioP2;P2;SDS_P1;SDS_P2;PMS_P1;PMS_P2;Temp;Humidity;BMP_temperature;BMP_pressure;BME280_temperature;BME280_humidity;BME280_pressure;Samples;Min_cycle;Max_cycle;Signal;HPM_P1;HPM_P2
2022/10/03 00:02:42;;;;;;;110.38;9.63;;;13.60;99.90;;;;;;6223297;28;20050;-83
2022/10/03 00:06:02;;;;;;;108.55;10.57;;;13.60;99.90;;;;;;6224037;28;20249;-82
2022/10/03 00:09:23;;;;;;;75.20;7.53;;;13.40;99.90;;;;;;6223095;28;20414;-83
2022/10/03 00:12:47;;;;;;;94.60;10.32;;;13.20;99.90;;;;;;6227888;28;20058;-84
2022/10/03 00:15:55;;;;;;;45.15;7.30;;;13.10;99.90;;;;;;6228955;28;20488;-84
2022/10/03 00:19:03;;;;;;;39.10;6.60;;;13.00;99.90;;;;;;6236459;28;20030;-83
2022/10/03 00:22:17;;;;;;;36.88;5.93;;;12.90;99.90;;;;;;6259013;28;20046;-83
2022/10/03 00:25:33;;;;;;;42.45;6.53;;;12.80;99.90;;;;;;6240561;28;20068;-84
2022/10/03 00:28:53;;;;;;;67.43;8.40;;;12.70;99.90;;;;;;6230662;28;20089;-84
2022/10/03 00:32:04;;;;;;;34.35;5.75;;;12.60;99.90;;;;;;6231594;28;20057;-83
2022/10/03 00:35:21;;;;;;;36.63;5.47;;;12.60;99.90;;;;;;6230674;28;20058;-82
2022/10/03 00:38:55;;;;;;;29.98;5.68;;;12.50;99.90;;;;;;6230818;28;20042;-83
2022/10/03 00:42:39;;;;;;;43.92;6.18;;;12.50;99.90;;;;;;6230025;28;20050;-83
2022/10/03 00:45:57;;;;;;;29.92;5.95;;;12.40;99.90;;;;;;6230424;28;20050;-83
2022/10/03 00:49:31;;;;;;;36.78;5.75;;;12.30;99.90;;;;;;6230214;28;20042;-83
2022/10/03 00:52:55;;;;;;;50.70;12.07;;;12.30;99.90;;;;;;6232113;28;20077;-82
2022/10/03 00:56:11;;;;;;;27.77;6.53;;;12.20;99.90;;;;;;6234932;28;20057;-82
2022/10/03 00:59:27;;;;;;;28.42;5.55;;;12.20;99.90;;;;;;6232375;28;20053;-82
2022/10/03 01:02:44;;;;;;;34.47;7.05;;;12.30;99.90;;;;;;6232093;28;20050;-82
2022/10/03 01:05:59;;;;;;;37.53;6.65;;;12.30;99.90;;;;;;6231994;28;20045;-82
2022/10/03 01:09:18;;;;;;;28.58;5.97;;;12.40;99.90;;;;;;6230932;28;20500;-84
2022/10/03 01:12:57;;;;;;;29.98;6.15;;;12.50;99.90;;;;;;6231794;28;20053;-85
2022/10/03 01:16:17;;;;;;;35.60;6.30;;;12.60;99.90;;;;;;6248566;28;20069;-85
2022/10/03 01:19:35;;;;;;;37.50;6.90;;;12.70;99.90;;;;;;6254464;28;20053;-86
2022/10/03 01:23:20;;;;;;;32.58;6.80;;;12.70;99.90;;;;;;6253513;28;20132;-86
2022/10/03 01:26:44;;;;;;;35.40;7.15;;;12.80;99.90;;;;;;6236542;28;20049;-85
2022/10/03 01:33:20;;;;;;;34.90;6.30;;;12.90;99.90;;;;;;6253089;28;20049;-86
2022/10/03 01:36:32;;;;;;;38.40;7.18;;;13.00;99.90;;;;;;6252878;28;20052;-85
2022/10/03 01:39:41;;;;;;;41.95;7.88;;;13.00;99.90;;;;;;6253617;28;20053;-84
2022/10/03 01:42:54;;;;;;;38.90;6.68;;;13.00;99.90;;;;;;6252512;28;20502;-86
2022/10/03 01:46:08;;;;;;;25.65;6.05;;;13.10;99.90;;;;;;6251906;28;20048;-86
2022/10/03 01:49:17;;;;;;;25.02;6.80;;;13.10;99.90;;;;;;6251188;28;20044;-85
2022/10/03 01:52:25;;;;;;;34.35;5.80;;;13.20;99.90;;;;;;6250309;28;20412;-85
2022/10/03 01:55:37;;;;;;;30.13;5.30;;;13.20;99.90;;;;;;6249796;28;20057;-84
2022/10/03 01:58:49;;;;;;;32.70;6.88;;;13.30;99.90;;;;;;6249617;28;20521;-84
2022/10/03 02:02:00;;;;;;;32.83;6.38;;;13.20;99.90;;;;;;6250065;28;20045;-84
2022/10/03 02:05:11;;;;;;;32.10;5.82;;;13.30;99.90;;;;;;6250181;28;20042;-85
2022/10/03 02:08:27;;;;;;;35.58;6.20;;;13.40;99.90;;;;;;6250783;28;20085;-85
2022/10/03 02:11:35;;;;;;;35.22;5.45;;;13.40;99.90;;;;;;6250245;28;20052;-85
2022/10/03 02:14:59;;;;;;;24.17;6.97;;;13.40;99.90;;;;;;6249251;28;20426;-85
2022/10/03 02:18:13;;;;;;;30.38;5.63;;;13.30;99.90;;;;;;6249357;28;20049;-85
2022/10/03 02:21:19;;;;;;;27.27;5.38;;;13.30;99.90;;;;;;6249539;28;20499;-84
2022/10/03 02:24:38;;;;;;;21.55;5.35;;;13.20;99.90;;;;;;6250307;28;20053;-86
2022/10/03 02:28:10;;;;;;;35.95;7.57;;;13.20;99.90;;;;;;6249899;28;20469;-85
2022/10/03 02:31:46;;;;;;;21.35;5.10;;;13.10;99.90;;;;;;6249394;28;20094;-85
2022/10/03 02:35:16;;;;;;;20.40;4.68;;;13.00;99.90;;;;;;6248341;28;20053;-85
2022/10/03 02:38:34;;;;;;;19.88;4.22;;;12.80;99.90;;;;;;6248615;28;20503;-83
2022/10/03 02:42:04;;;;;;;28.13;5.45;;;12.60;99.90;;;;;;6248903;28;20049;-83
2022/10/03 02:45:30;;;;;;;26.95;4.60;;;12.50;99.90;;;;;;6249400;28;20045;-85
2022/10/03 02:48:54;;;;;;;28.10;5.82;;;12.30;99.90;;;;;;6247496;28;20045;-85
2022/10/03 02:52:16;;;;;;;25.55;5.10;;;12.20;99.90;;;;;;6249028;28;20057;-85
2022/10/03 02:55:48;;;;;;;14.13;3.63;;;12.10;99.90;;;;;;6249064;28;20526;-86
2022/10/03 02:59:15;;;;;;;19.58;4.53;;;12.10;99.90;;;;;;6249966;28;20060;-85
2022/10/03 03:02:48;;;;;;;21.48;3.78;;;12.00;99.90;;;;;;6250257;28;20124;-85
2022/10/03 03:06:40;;;;;;;19.48;4.30;;;11.90;99.90;;;;;;6250035;28;20049;-85
2022/10/03 03:10:27;;;;;;;14.98;4.10;;;11.90;99.90;;;;;;6250433;28;20046;-85
2022/10/03 03:14:00;;;;;;;19.92;4.60;;;11.80;99.90;;;;;;6250642;28;20046;-85
2022/10/03 03:17:10;;;;;;;14.35;5.15;;;11.80;99.90;;;;;;6251813;28;20530;-84
2022/10/03 03:20:32;;;;;;;19.52;4.68;;;11.80;99.90;;;;;;6251265;28;20060;-85
2022/10/03 03:23:58;;;;;;;16.98;3.92;;;11.90;99.90;;;;;;6251365;28;20076;-85
2022/10/03 03:27:30;;;;;;;22.65;4.78;;;12.10;99.90;;;;;;6249812;28;20645;-84
2022/10/03 03:30:39;;;;;;;16.80;4.25;;;12.20;99.90;;;;;;6248171;28;20410;-85
2022/10/03 03:33:57;;;;;;;21.13;5.28;;;12.30;99.90;;;;;;6250086;28;20077;-86
2022/10/03 03:37:04;;;;;;;38.15;6.13;;;12.40;99.90;;;;;;6250078;28;20518;-85
2022/10/03 03:40:22;;;;;;;24.33;5.60;;;12.50;99.90;;;;;;6250685;28;20418;-86
2022/10/03 03:43:44;;;;;;;20.05;4.53;;;12.60;99.90;;;;;;6250931;28;20053;-85
2022/10/03 03:47:03;;;;;;;29.17;5.95;;;12.60;99.90;;;;;;6250643;28;20049;-85
2022/10/03 03:50:22;;;;;;;25.50;5.68;;;12.70;99.90;;;;;;6275190;28;20031;-84
2022/10/03 03:53:57;;;;;;;19.90;4.90;;;12.70;99.90;;;;;;6271504;28;20041;-87
2022/10/03 03:57:14;;;;;;;24.80;5.97;;;12.70;99.90;;;;;;6254679;28;20048;-86
2022/10/03 04:00:20;;;;;;;27.55;5.28;;;12.80;99.90;;;;;;6257613;28;20045;-85
2022/10/03 04:03:34;;;;;;;22.10;5.95;;;12.80;99.90;;;;;;6257949;28;20053;-86
2022/10/03 04:06:54;;;;;;;33.40;6.47;;;12.80;99.90;;;;;;6256040;28;20045;-86
2022/10/03 04:10:07;;;;;;;28.90;5.93;;;12.80;99.90;;;;;;6256781;28;20454;-86
2022/10/03 04:13:39;;;;;;;26.75;5.57;;;12.80;99.90;;;;;;6256417;28;20048;-85
2022/10/03 04:21:02;;;;;;;25.92;6.03;;;12.80;99.90;;;;;;6253179;28;20053;-85
2022/10/03 04:24:20;;;;;;;31.05;6.90;;;12.90;99.90;;;;;;6252635;28;20065;-85
2022/10/03 04:27:39;;;;;;;28.35;6.80;;;13.00;99.90;;;;;;6252232;28;20099;-85
2022/10/03 04:30:54;;;;;;;27.15;6.75;;;13.00;99.90;;;;;;6252321;28;20053;-85
2022/10/03 04:34:13;;;;;;;27.67;5.80;;;13.10;99.90;;;;;;6252463;28;20045;-85
2022/10/03 04:37:23;;;;;;;37.05;7.03;;;13.10;99.90;;;;;;6252035;28;20124;-84
2022/10/03 04:40:37;;;;;;;30.05;6.68;;;13.10;99.90;;;;;;6253152;28;20073;-85
2022/10/03 04:43:43;;;;;;;30.40;6.32;;;13.10;99.90;;;;;;6253276;28;20052;-86
2022/10/03 04:46:52;;;;;;;25.60;5.70;;;13.00;99.90;;;;;;6252381;28;20592;-85
2022/10/03 04:50:02;;;;;;;39.45;6.38;;;13.00;99.90;;;;;;6252855;28;20046;-86
2022/10/03 04:53:17;;;;;;;25.40;6.05;;;12.80;99.90;;;;;;6252495;28;20041;-85
2022/10/03 04:56:49;;;;;;;22.95;4.93;;;12.70;99.90;;;;;;6254174;28;20068;-85
2022/10/03 04:59:58;;;;;;;24.10;5.15;;;12.70;99.90;;;;;;6222402;28;20392;-86
2022/10/03 05:03:07;;;;;;;22.63;5.10;;;12.70;99.90;;;;;;6257232;28;20053;-84
2022/10/03 05:06:24;;;;;;;30.77;6.40;;;12.80;99.90;;;;;;6256863;28;20404;-85
2022/10/03 05:09:33;;;;;;;26.25;6.00;;;12.80;99.90;;;;;;6256548;28;20067;-86
2022/10/03 05:12:38;;;;;;;;;;;12.80;99.90;;;;;;6256888;28;20053;-85
2022/10/03 05:15:51;;;;;;;35.05;7.38;;;12.90;99.90;;;;;;6256052;28;20378;-85
2022/10/03 05:18:58;;;;;;;30.33;7.05;;;12.90;99.90;;;;;;6254136;28;20412;-86
2022/10/03 05:22:08;;;;;;;25.98;6.28;;;12.90;99.90;;;;;;6253911;28;20539;-86
2022/10/03 05:25:21;;;;;;;37.92;7.47;;;12.90;99.90;;;;;;6253956;28;20054;-85
2022/10/03 05:28:35;;;;;;;26.42;6.28;;;12.90;99.90;;;;;;6253344;28;20450;-86
2022/10/03 05:31:49;;;;;;;33.80;6.57;;;12.70;99.90;;;;;;6253317;28;20068;-86
2022/10/03 05:35:06;;;;;;;25.27;5.28;;;12.80;99.90;;;;;;6263508;28;20043;-85
2022/10/03 05:38:37;;;;;;;28.45;6.20;;;12.80;99.90;;;;;;6260780;28;20045;-86
2022/10/03 05:41:40;;;;;;;46.17;6.88;;;12.80;99.90;;;;;;6252849;28;20057;-86
2022/10/03 05:44:50;;;;;;;52.50;7.63;;;12.90;99.90;;;;;;6250136;28;20057;-85
2022/10/03 05:47:56;;;;;;;56.08;8.13;;;13.00;99.90;;;;;;6250402;28;20072;-86
2022/10/03 05:51:21;;;;;;;63.53;8.98;;;13.00;99.90;;;;;;6250034;28;20057;-85
2022/10/03 05:54:50;;;;;;;61.97;9.32;;;13.10;99.90;;;;;;6250018;28;20049;-86
2022/10/03 05:58:23;;;;;;;70.13;9.40;;;13.20;99.90;;;;;;6247048;23;20527;-82
2022/10/03 06:01:58;;;;;;;66.53;12.73;;;13.30;99.90;;;;;;6232512;28;20053;-82
2022/10/03 06:05:24;;;;;;;72.15;12.05;;;13.30;99.90;;;;;;6233200;28;20127;-82
2022/10/03 06:09:01;;;;;;;52.95;8.27;;;13.40;99.90;;;;;;6234072;28;20054;-82
2022/10/03 06:12:09;;;;;;;62.55;8.70;;;13.50;99.90;;;;;;6257574;28;20049;-82
2022/10/03 06:15:36;;;;;;;56.28;9.98;;;13.50;99.90;;;;;;6236066;28;20127;-82
2022/10/03 06:19:07;;;;;;;70.70;10.40;;;13.60;99.90;;;;;;6234166;28;20481;-83
2022/10/03 06:22:46;;;;;;;60.92;12.70;;;13.70;99.90;;;;;;6233702;28;20053;-82
2022/10/03 06:26:05;;;;;;;60.63;12.82;;;13.80;99.90;;;;;;6232064;28;20045;-82
2022/10/03 06:29:44;;;;;;;61.13;12.30;;;13.90;99.90;;;;;;6230133;28;20184;-83
2022/10/03 06:33:21;;;;;;;65.40;11.73;;;14.00;99.90;;;;;;6228327;28;20050;-83
2022/10/03 06:36:37;;;;;;;69.05;12.63;;;14.00;99.90;;;;;;6217669;28;20405;-84
2022/10/03 06:40:16;;;;;;;44.88;9.90;;;14.10;99.90;;;;;;6230632;28;20049;-83
2022/10/03 06:44:06;;;;;;;43.10;11.13;;;14.20;99.90;;;;;;6229363;28;20049;-82
2022/10/03 06:47:25;;;;;;;63.65;12.55;;;14.30;99.90;;;;;;6225968;28;20052;-83
2022/10/03 06:51:01;;;;;;;63.70;11.43;;;14.40;99.90;;;;;;6228492;28;20057;-82
2022/10/03 06:54:21;;;;;;;48.17;8.77;;;14.50;99.90;;;;;;6228779;28;20046;-82
2022/10/03 06:57:42;;;;;;;63.63;10.65;;;14.60;99.90;;;;;;6228179;28;20053;-82
2022/10/03 07:00:57;;;;;;;57.55;10.18;;;14.60;99.90;;;;;;6227484;28;20050;-83
2022/10/03 07:04:32;;;;;;;45.05;10.18;;;14.70;99.90;;;;;;6228621;28;20056;-82
2022/10/03 07:08:19;;;;;;;48.13;9.65;;;14.70;99.90;;;;;;6227702;28;20050;-83
2022/10/03 07:11:46;;;;;;;48.50;9.68;;;14.80;99.90;;;;;;6181103;28;20060;-83
2022/10/03 07:15:09;;;;;;;37.08;9.00;;;14.90;99.90;;;;;;6228895;28;20050;-82
2022/10/03 07:19:01;;;;;;;41.25;9.60;;;14.90;99.90;;;;;;6217386;28;20518;-83
2022/10/03 07:22:39;;;;;;;32.33;8.73;;;14.80;99.90;;;;;;6186722;28;20082;-83
2022/10/03 07:26:25;;;;;;;34.83;9.30;;;15.00;99.90;;;;;;6182327;28;20052;-83
2022/10/03 07:29:49;;;;;;;48.72;10.48;;;15.00;99.90;;;;;;6231907;28;20126;-83
2022/10/03 07:33:36;;;;;;;43.95;8.85;;;15.20;99.90;;;;;;6247061;28;20049;-83
2022/10/03 07:40:51;;;;;;;47.47;11.30;;;15.40;99.90;;;;;;6226366;28;20042;-84
2022/10/03 07:44:43;;;;;;;48.45;14.20;;;15.50;99.90;;;;;;6233898;28;20052;-82
2022/10/03 07:48:12;;;;;;;55.85;13.40;;;15.50;99.90;;;;;;6230549;28;20053;-83
2022/10/03 07:51:22;;;;;;;50.17;12.57;;;15.70;99.90;;;;;;6247943;28;20135;-82
2022/10/03 07:55:04;;;;;;;56.53;13.82;;;15.80;99.90;;;;;;6250391;28;20052;-83
2022/10/03 07:58:50;;;;;;;46.05;11.60;;;15.90;99.90;;;;;;6241025;28;20046;-83
2022/10/03 08:02:07;;;;;;;42.42;10.55;;;16.00;99.90;;;;;;6246363;28;20522;-83
2022/10/03 08:05:34;;;;;;;49.20;14.15;;;16.10;99.90;;;;;;6251130;28;20049;-83
2022/10/03 08:09:05;;;;;;;40.05;14.65;;;16.20;99.90;;;;;;6252777;28;20049;-82
2022/10/03 08:12:30;;;;;;;43.55;15.25;;;16.40;99.90;;;;;;6220869;28;20056;-84
2022/10/03 08:15:48;;;;;;;43.08;14.18;;;16.50;99.90;;;;;;6252952;28;20450;-82
2022/10/03 08:19:15;;;;;;;45.55;13.73;;;16.60;99.90;;;;;;6255089;28;20046;-83
2022/10/03 08:22:37;;;;;;;39.25;14.07;;;16.60;99.90;;;;;;6247215;28;20503;-83
2022/10/03 08:25:58;;;;;;;52.50;16.08;;;16.60;99.90;;;;;;6255076;28;20449;-82
2022/10/03 08:29:20;;;;;;;44.30;16.65;;;16.70;99.90;;;;;;6255905;28;20049;-83
2022/10/03 08:32:46;;;;;;;33.13;14.35;;;16.80;99.90;;;;;;6256582;28;20080;-84
2022/10/03 08:36:22;;;;;;;39.17;14.93;;;16.80;99.90;;;;;;6258836;28;20136;-82
2022/10/03 08:39:55;;;;;;;34.58;14.77;;;16.80;99.90;;;;;;6258844;28;20045;-82
2022/10/03 08:43:38;;;;;;;48.05;15.93;;;16.80;99.90;;;;;;6261038;28;20442;-81
2022/10/03 08:47:19;;;;;;;42.42;16.08;;;16.70;99.90;;;;;;6244302;28;20095;-79
2022/10/03 08:50:56;;;;;;;45.03;16.95;;;17.00;99.90;;;;;;6156608;28;20056;-83
2022/10/03 08:54:23;;;;;;;43.13;18.25;;;17.70;99.90;;;;;;6237564;28;20050;-83
2022/10/03 08:57:49;;;;;;;40.90;17.85;;;18.80;99.90;;;;;;6235048;28;20050;-83
2022/10/03 09:01:22;;;;;;;24.38;13.80;;;19.30;99.90;;;;;;6253453;28;20045;-84
2022/10/03 09:04:57;;;;;;;27.23;14.75;;;20.00;99.90;;;;;;6254256;28;20053;-83
2022/10/03 09:08:34;;;;;;;37.03;12.38;;;20.80;99.90;;;;;;6255824;28;20045;-83
2022/10/03 09:11:50;;;;;;;27.65;11.65;;;21.00;99.90;;;;;;6254442;28;20115;-83
2022/10/03 09:15:24;;;;;;;24.73;12.27;;;21.10;99.90;;;;;;6254367;28;20053;-81
2022/10/03 09:18:48;;;;;;;20.45;11.50;;;21.30;99.90;;;;;;6247093;28;20050;-83
2022/10/03 09:22:15;;;;;;;27.45;10.93;;;21.10;99.90;;;;;;6249797;28;20053;-83
2022/10/03 09:25:45;;;;;;;18.02;8.95;;;21.20;99.90;;;;;;6231641;28;20056;-83
2022/10/03 09:29:07;;;;;;;;;;;21.30;99.90;;;;;;6233241;28;20046;-81
2022/10/03 09:32:58;;;;;;;18.55;7.63;;;21.30;99.90;;;;;;6212588;28;19922;-82
2022/10/03 09:36:29;;;;;;;14.07;6.40;;;21.20;99.90;;;;;;6237312;28;20053;-83
2022/10/03 09:40:14;;;;;;;12.63;4.88;;;21.40;99.90;;;;;;6202047;28;20076;-82
2022/10/03 09:43:42;;;;;;;14.00;4.68;;;21.80;99.90;;;;;;6235006;28;20050;-83
2022/10/03 09:50:52;;;;;;;13.93;5.07;;;22.70;99.90;;;;;;6251153;28;20049;-82
2022/10/03 09:54:36;;;;;;;12.60;4.88;;;22.90;99.70;;;;;;6255131;28;20069;-82
2022/10/03 09:58:21;;;;;;;15.48;5.32;;;22.70;95.60;;;;;;6253896;28;20049;-82
2022/10/03 10:01:31;;;;;;;12.63;4.28;;;22.50;91.10;;;;;;6166611;28;20043;-81
2022/10/03 10:04:58;;;;;;;19.17;6.30;;;22.80;94.80;;;;;;6151948;28;20061;-82
2022/10/03 10:08:33;;;;;;;13.02;4.68;;;23.00;95.90;;;;;;6225314;28;20422;-81
2022/10/03 10:12:16;;;;;;;10.43;5.05;;;23.00;96.20;;;;;;6232311;28;20054;-81
2022/10/03 10:15:43;;;;;;;16.23;5.88;;;22.80;96.20;;;;;;6179101;28;20592;-82
2022/10/03 10:19:30;;;;;;;12.25;5.25;;;22.50;95.80;;;;;;6251164;28;20037;-80
2022/10/03 10:22:58;;;;;;;11.00;6.15;;;22.20;96.20;;;;;;6213229;28;20053;-81
2022/10/03 10:26:32;;;;;;;12.30;5.35;;;22.40;96.20;;;;;;6243054;28;20053;-81
2022/10/03 10:30:16;;;;;;;8.85;4.35;;;22.90;95.20;;;;;;6231360;28;20050;-82
2022/10/03 10:34:00;;;;;;;12.95;5.25;;;23.30;91.90;;;;;;6206608;28;20052;-82
2022/10/03 10:37:38;;;;;;;13.45;4.30;;;23.20;90.20;;;;;;6227603;28;20042;-82
2022/10/03 10:41:34;;;;;;;14.55;3.85;;;22.90;90.40;;;;;;6222276;28;20061;-82
2022/10/03 10:45:23;;;;;;;10.32;3.50;;;22.90;89.10;;;;;;6224443;28;20525;-82
2022/10/03 10:49:12;;;;;;;7.75;3.05;;;23.20;86.70;;;;;;6228025;28;20053;-82
2022/10/03 10:52:46;;;;;;;6.50;3.22;;;23.00;83.70;;;;;;6197417;28;20046;-81
2022/10/03 10:56:26;;;;;;;13.63;3.40;;;23.30;90.40;;;;;;6255188;28;20423;-82
2022/10/03 11:00:14;;;;;;;9.52;2.75;;;23.70;84.30;;;;;;6228805;28;20042;-82
2022/10/03 11:04:01;;;;;;;11.40;2.97;;;24.00;87.10;;;;;;6194076;28;20050;-82
2022/10/03 11:07:39;;;;;;;12.65;3.08;;;24.50;77.90;;;;;;6251331;28;20049;-82
2022/10/03 11:10:55;;;;;;;15.18;3.60;;;24.50;83.00;;;;;;6256028;28;20049;-82
2022/10/03 11:14:36;;;;;;;8.00;2.47;;;24.60;77.70;;;;;;6257118;28;20411;-82
2022/10/03 11:18:07;;;;;;;7.78;1.83;;;24.80;82.30;;;;;;6254507;28;20049;-82
2022/10/03 11:21:38;;;;;;;9.30;1.90;;;24.80;76.00;;;;;;6241112;28;20053;-84
2022/10/03 11:25:17;;;;;;;15.13;1.70;;;24.90;77.50;;;;;;6240140;28;20050;-84
2022/10/03 11:29:07;;;;;;;7.65;1.60;;;25.00;71.20;;;;;;6224535;28;20145;-83
2022/10/03 11:32:28;;;;;;;;;;;24.50;77.30;;;;;;6231614;28;20042;-83
2022/10/03 11:35:54;;;;;;;5.47;1.17;;;24.40;74.10;;;;;;6225967;28;19929;-83
2022/10/03 11:39:03;;;;;;;8.38;1.55;;;24.20;70.90;;;;;;6228386;28;20046;-84
2022/10/03 11:42:19;;;;;;;7.97;1.58;;;23.70;69.50;;;;;;6228455;28;20053;-83
2022/10/03 11:45:31;;;;;;;5.95;2.17;;;23.60;69.30;;;;;;6227403;28;20053;-84
2022/10/03 11:48:40;;;;;;;4.68;1.83;;;23.90;71.30;;;;;;6226341;28;20057;-83
2022/10/03 11:51:49;;;;;;;7.55;1.63;;;24.40;72.70;;;;;;6239420;28;20495;-84
2022/10/03 11:55:03;;;;;;;4.88;1.10;;;24.80;71.80;;;;;;6242701;28;20088;-84
2022/10/03 11:58:31;;;;;;;6.93;1.30;;;25.20;69.10;;;;;;6271779;22;20037;-82
2022/10/03 12:01:53;;;;;;;4.82;1.15;;;25.40;64.90;;;;;;6247896;28;20514;-80
2022/10/03 12:05:00;;;;;;;11.43;2.38;;;25.10;61.90;;;;;;6261053;28;20041;-80
2022/10/03 12:11:44;;;;;;;6.65;1.38;;;23.60;68.00;;;;;;6258993;28;20053;-83
2022/10/03 12:14:49;;;;;;;4.97;1.42;;;23.20;70.70;;;;;;6258260;28;20522;-82
2022/10/03 12:18:01;;;;;;;6.00;1.58;;;23.10;72.20;;;;;;6256475;28;20418;-82
2022/10/03 12:21:11;;;;;;;10.52;1.67;;;23.40;68.00;;;;;;6255369;28;20045;-81
2022/10/03 12:24:23;;;;;;;4.78;1.25;;;23.60;70.90;;;;;;6231558;28;20046;-83
2022/10/03 12:27:43;;;;;;;6.50;1.23;;;24.10;66.70;;;;;;6232088;28;20479;-82
2022/10/03 12:30:49;;;;;;;5.63;2.00;;;24.30;64.90;;;;;;6231152;28;20049;-83
2022/10/03 12:33:59;;;;;;;4.30;1.08;;;24.20;63.60;;;;;;6231282;28;20397;-81
2022/10/03 12:37:22;;;;;;;4.82;1.52;;;23.80;62.50;;;;;;6229316;28;20046;-82
2022/10/03 12:40:28;;;;;;;9.68;1.52;;;23.70;65.90;;;;;;6229005;28;20049;-81
2022/10/03 12:43:49;;;;;;;7.22;1.50;;;24.10;67.30;;;;;;6227510;28;20503;-82
2022/10/03 12:47:00;;;;;;;2.25;0.85;;;24.60;67.00;;;;;;6227519;28;20050;-80
2022/10/03 12:50:17;;;;;;;3.72;1.23;;;25.50;66.30;;;;;;6235733;28;20413;-80
2022/10/03 12:53:27;;;;;;;8.80;1.17;;;26.20;66.20;;;;;;6252814;28;20564;-77
2022/10/03 12:56:41;;;;;;;5.43;1.35;;;26.50;64.30;;;;;;6251700;28;20053;-82
2022/10/03 12:59:46;;;;;;;4.50;1.42;;;26.00;61.40;;;;;;6254339;28;20072;-82
2022/10/03 13:03:11;;;;;;;4.55;1.73;;;25.50;64.40;;;;;;6253622;28;20045;-82
2022/10/03 13:06:36;;;;;;;14.35;4.13;;;25.20;64.40;;;;;;6244258;28;20049;-83
2022/10/03 13:09:59;;;;;;;7.22;2.03;;;25.10;65.70;;;;;;6252516;28;20172;-81
2022/10/03 13:13:14;;;;;;;2.25;1.10;;;25.20;67.20;;;;;;6252465;28;20053;-81
2022/10/03 13:16:23;;;;;;;7.18;1.33;;;25.40;62.50;;;;;;6253353;28;20491;-83
2022/10/03 13:19:29;;;;;;;5.28;1.30;;;25.00;62.60;;;;;;6256479;28;20045;-82
2022/10/03 13:22:40;;;;;;;2.60;1.30;;;24.70;65.10;;;;;;6252992;28;20049;-83
2022/10/03 13:25:45;;;;;;;4.55;1.17;;;24.80;64.70;;;;;;6253116;28;20499;-82
2022/10/03 13:29:12;;;;;;;7.53;1.70;;;24.90;64.60;;;;;;6252246;28;20046;-81
2022/10/03 13:32:25;;;;;;;2.67;0.88;;;25.10;63.70;;;;;;6252650;28;20049;-85
2022/10/03 13:39:13;;;;;;;2.55;1.33;;;25.30;62.50;;;;;;6256115;28;20049;-82
2022/10/03 13:42:20;;;;;;;4.70;1.17;;;25.50;57.80;;;;;;6256211;28;20046;-83
2022/10/03 13:45:24;;;;;;;5.63;1.38;;;25.40;57.70;;;;;;6256197;28;20046;-83
2022/10/03 13:48:28;;;;;;;5.50;0.90;;;25.20;57.20;;;;;;6254151;28;20046;-82
2022/10/03 13:51:44;;;;;;;3.58;0.80;;;25.20;58.00;;;;;;6253129;28;20056;-82
2022/10/03 13:55:10;;;;;;;5.45;1.27;;;25.00;55.40;;;;;;6262881;28;20060;-81
2022/10/03 13:58:39;;;;;;;4.75;1.02;;;24.50;57.80;;;;;;6277610;28;20521;-83
2022/10/03 14:01:49;;;;;;;6.15;1.23;;;24.40;58.00;;;;;;6278805;28;20048;-84
2022/10/03 14:05:02;;;;;;;6.15;1.58;;;24.30;57.10;;;;;;6276950;28;20045;-83
2022/10/03 14:08:12;;;;;;;3.20;1.17;;;24.20;56.90;;;;;;6277113;28;20128;-82
2022/10/03 14:11:23;;;;;;;6.60;1.52;;;23.70;57.30;;;;;;6276113;28;20502;-81
2022/10/03 14:14:39;;;;;;;5.13;1.48;;;23.30;57.50;;;;;;6276241;28;20513;-83
2022/10/03 14:17:47;;;;;;;9.13;1.40;;;23.20;59.30;;;;;;6275575;28;20049;-84
2022/10/03 14:21:34;;;;;;;3.95;1.23;;;23.50;58.40;;;;;;6261317;28;20495;-84
2022/10/03 14:24:52;;;;;;;3.28;1.15;;;23.60;56.80;;;;;;6251206;28;20068;-85
2022/10/03 14:27:59;;;;;;;2.85;1.05;;;23.30;58.00;;;;;;6252057;28;20049;-85
2022/10/03 14:31:10;;;;;;;6.57;0.98;;;23.30;57.20;;;;;;6251401;28;20048;-83
2022/10/03 14:34:23;;;;;;;3.78;0.80;;;23.40;57.90;;;;;;6254345;28;20156;-82
2022/10/03 14:37:36;;;;;;;5.20;0.90;;;23.70;58.70;;;;;;6251251;28;20038;-82
2022/10/03 14:40:47;;;;;;;5.78;1.00;;;23.90;59.20;;;;;;6252755;28;20087;-84
2022/10/03 14:44:01;;;;;;;8.43;1.20;;;24.20;58.60;;;;;;6254068;28;20160;-83
2022/10/03 14:47:11;;;;;;;5.50;0.88;;;24.60;56.30;;;;;;6253224;28;20076;-85
2022/10/03 14:50:19;;;;;;;5.03;1.00;;;24.80;56.90;;;;;;6251710;28;20060;-85
2022/10/03 14:54:18;;;;;;;3.78;1.52;;;24.90;56.60;;;;;;6254076;28;20049;-84
2022/10/03 14:57:32;;;;;;;6.03;1.65;;;25.00;57.20;;;;;;6234535;28;20521;-84
2022/10/03 15:00:42;;;;;;;3.97;1.02;;;25.10;57.60;;;;;;6242830;28;20126;-84
2022/10/03 15:03:55;;;;;;;5.95;1.75;;;25.10;55.90;;;;;;6261786;28;20057;-84
2022/10/03 15:11:22;;;;;;;3.78;0.95;;;24.90;55.40;;;;;;6097307;29;20056;-85
2022/10/03 15:14:33;;;;;;;6.60;1.15;;;24.50;56.00;;;;;;6247682;28;20387;-86
2022/10/03 15:34:07;;;;;;;5.82;2.67;;;21.30;62.10;;;;;;5995433;29;20137;-83
2022/10/03 15:37:17;;;;;;;13.70;8.25;;;20.90;61.80;;;;;;6074706;29;20048;-85
2022/10/03 15:40:22;;;;;;;5.93;4.88;;;20.50;64.00;;;;;;6230864;28;20410;-85
2022/10/03 15:43:33;;;;;;;5.43;2.15;;;20.20;66.70;;;;;;6231358;28;20492;-85
2022/10/03 15:47:57;;;;;;;3.85;1.65;;;20.00;66.30;;;;;;6237206;28;20041;-84
2022/10/03 15:51:03;;;;;;;4.88;1.98;;;19.70;66.90;;;;;;6184654;28;20511;-86
2022/10/03 15:54:19;;;;;;;4.80;1.77;;;19.30;68.70;;;;;;6248830;28;20064;-85
2022/10/03 15:57:29;;;;;;;3.85;1.33;;;19.10;68.40;;;;;;6271603;28;20116;-84
2022/10/03 16:00:34;;;;;;;6.28;1.50;;;18.70;69.70;;;;;;6283649;28;20123;-84
2022/10/03 16:03:46;;;;;;;4.68;1.63;;;18.50;70.40;;;;;;6285582;28;20052;-84
2022/10/03 16:06:56;;;;;;;2.90;1.25;;;18.30;72.00;;;;;;6277423;28;20079;-84
2022/10/03 16:10:16;;;;;;;9.57;1.92;;;18.20;73.00;;;;;;6297810;28;20060;-84
2022/10/03 16:13:34;;;;;;;3.40;1.63;;;18.10;74.40;;;;;;6291460;28;20052;-84
2022/10/03 16:16:37;;;;;;;;;;;18.10;76.30;;;;;;6289608;28;20095;-84
2022/10/03 16:19:42;;;;;;;4.70;1.40;;;18.10;76.50;;;;;;6278832;28;19943;-84
2022/10/03 16:22:48;;;;;;;12.32;1.60;;;18.20;76.50;;;;;;6260521;28;20119;-85
2022/10/03 16:26:01;;;;;;;4.95;1.42;;;18.10;78.00;;;;;;6261821;28;20077;-84
2022/10/03 16:29:12;;;;;;;8.50;2.65;;;18.10;77.60;;;;;;6262247;28;20056;-85
2022/10/03 16:32:18;;;;;;;7.95;2.53;;;18.10;77.10;;;;;;6262302;28;20073;-84
2022/10/03 16:35:36;;;;;;;9.35;3.50;;;18.00;78.10;;;;;;6261759;28;20047;-83
2022/10/03 16:38:40;;;;;;;12.60;3.17;;;17.80;77.00;;;;;;6261995;28;20045;-83
2022/10/03 16:41:46;;;;;;;7.53;1.67;;;17.70;77.60;;;;;;6256731;28;20106;-83
2022/10/03 16:44:50;;;;;;;8.52;2.38;;;17.40;78.30;;;;;;6256322;28;20129;-84
2022/10/03 16:51:18;;;;;;;14.10;9.70;;;17.20;81.30;;;;;;6253221;28;20111;-84
2022/10/03 16:54:21;;;;;;;6.20;3.20;;;17.00;81.90;;;;;;6259045;28;20053;-83
2022/10/03 16:57:32;;;;;;;9.73;3.42;;;16.90;83.70;;;;;;6271477;28;20041;-82
2022/10/03 17:00:41;;;;;;;8.35;2.10;;;16.70;85.20;;;;;;6277968;28;20128;-82
2022/10/03 17:03:47;;;;;;;9.43;3.40;;;16.50;86.70;;;;;;6277780;28;20410;-82
2022/10/03 17:06:50;;;;;;;10.07;2.75;;;16.40;90.70;;;;;;6281154;28;20053;-82
2022/10/03 17:09:54;;;;;;;8.07;2.17;;;16.30;91.90;;;;;;6282272;28;20064;-83
2022/10/03 17:12:59;;;;;;;4.97;2.22;;;16.10;92.80;;;;;;6283456;28;20106;-83
2022/10/03 17:16:05;;;;;;;10.15;2.17;;;16.10;93.90;;;;;;6285996;28;20430;-83
2022/10/03 17:19:18;;;;;;;8.00;2.15;;;16.10;95.00;;;;;;6282956;28;20487;-83
2022/10/03 17:22:31;;;;;;;6.35;2.30;;;16.00;95.50;;;;;;6262800;28;20049;-82
2022/10/03 17:25:47;;;;;;;7.18;1.90;;;15.90;96.20;;;;;;6261085;28;20105;-82
2022/10/03 17:28:56;;;;;;;7.43;1.90;;;15.80;97.00;;;;;;6251399;28;20602;-83
2022/10/03 17:32:02;;;;;;;10.23;2.38;;;15.80;97.70;;;;;;6259154;28;20053;-83
2022/10/03 17:35:11;;;;;;;6.00;3.13;;;15.60;98.10;;;;;;6258917;28;20064;-83
2022/10/03 17:38:22;;;;;;;7.25;2.05;;;15.50;98.30;;;;;;6257961;28;20056;-83
2022/10/03 17:41:31;;;;;;;3.70;2.00;;;15.30;98.90;;;;;;6256780;28;20049;-83
2022/10/03 17:44:50;;;;;;;6.25;2.00;;;15.10;99.40;;;;;;6260818;28;20050;-83
2022/10/03 17:47:57;;;;;;;5.85;2.13;;;15.00;99.80;;;;;;6260818;28;20557;-84
2022/10/03 17:51:28;;;;;;;8.05;2.22;;;14.90;99.90;;;;;;6259669;28;20046;-84
2022/10/03 17:54:34;;;;;;;4.43;1.92;;;14.80;99.90;;;;;;6260480;28;20057;-83
2022/10/03 17:57:49;;;;;;;5.05;1.77;;;14.70;99.90;;;;;;6367002;23;20038;-82
2022/10/03 18:01:13;;;;;;;10.40;1.92;;;14.60;99.90;;;;;;6228307;28;20049;-83
2022/10/03 18:04:58;;;;;;;8.15;1.83;;;14.50;99.90;;;;;;6229409;28;20045;-82